sensor_id;sensor_type;location;lat;lon;timestamp;P1;durP1;ratioP1;P2;durP2;ratioP2
58250;SDS011;51449;51.676;5.812;2023-05-29T00:00:50;13.33;;;4.43;;
58250;SDS011;51449;51.676;5.812;2023-05-29T00:03:32;12.10;;;4.17;;
58250;SDS011;51449;51.676;5.812;2023-05-29T00:06:13;13.37;;;4.30;;
58250;SDS011;51449;51.676;5.812;2023-05-29T00:08:53;11.30;;;4.03;;
58250;SDS011;51449;51.676;5.812;2023-05-29T00:11:33;15.33;;;4.70;;
58250;SDS011;51449;51.676;5.812;2023-05-29T00:14:14;12.07;;;4.00;;
58250;SDS011;51449;51.676;5.812;2023-05-29T00:16:54;7.53;;;3.80;;
58250;SDS011;51449;51.676;5.812;2023-05-29T00:19:36;11.03;;;4.03;;
58250;SDS011;51449;51.676;5.812;2023-05-29T00:22:17;10.47;;;3.40;;
58250;SDS011;51449;51.676;5.812;2023-05-29T00:24:57;13.63;;;4.17;;
58250;SDS011;51449;51.676;5.812;2023-05-29T00:27:37;16.40;;;4.07;;
58250;SDS011;51449;51.676;5.812;2023-05-29T00:30:18;13.43;;;3.20;;
58250;SDS011;51449;51.676;5.812;2023-05-29T00:32:58;10.30;;;3.33;;
58250;SDS011;51449;51.676;5.812;2023-05-29T00:35:38;16.37;;;3.90;;
58250;SDS011;51449;51.676;5.812;2023-05-29T00:38:19;10.43;;;3.17;;
58250;SDS011;51449;51.676;5.812;2023-05-29T00:41:00;14.03;;;4.57;;
58250;SDS011;51449;51.676;5.812;2023-05-29T00:43:40;12.70;;;3.70;;
58250;SDS011;51449;51.676;5.812;2023-05-29T00:46:21;12.43;;;3.60;;
58250;SDS011;51449;51.676;5.812;2023-05-29T00:49:02;15.47;;;3.70;;
58250;SDS011;51449;51.676;5.812;2023-05-29T00:51:45;12.63;;;3.57;;
58250;SDS011;51449;51.676;5.812;2023-05-29T00:54:27;12.73;;;3.70;;
58250;SDS011;51449;51.676;5.812;2023-05-29T00:57:10;11.90;;;3.10;;
58250;SDS011;51449;51.676;5.812;2023-05-29T00:59:53;13.20;;;3.63;;
58250;SDS011;51449;51.676;5.812;2023-05-29T01:02:36;11.83;;;3.53;;
58250;SDS011;51449;51.676;5.812;2023-05-29T01:05:19;13.73;;;3.83;;
58250;SDS011;51449;51.676;5.812;2023-05-29T01:07:59;11.37;;;3.47;;
58250;SDS011;51449;51.676;5.812;2023-05-29T01:10:39;14.87;;;3.77;;
58250;SDS011;51449;51.676;5.812;2023-05-29T01:13:25;12.93;;;3.50;;
58250;SDS011;51449;51.676;5.812;2023-05-29T01:16:18;14.93;;;3.80;;
58250;SDS011;51449;51.676;5.812;2023-05-29T01:22:49;16.07;;;3.97;;
58250;SDS011;51449;51.676;5.812;2023-05-29T01:25:49;11.37;;;3.10;;
58250;SDS011;51449;51.676;5.812;2023-05-29T01:28:47;19.33;;;4.70;;
58250;SDS011;51449;51.676;5.812;2023-05-29T01:31:31;11.33;;;3.50;;
58250;SDS011;51449;51.676;5.812;2023-05-29T01:34:15;15.90;;;3.80;;
58250;SDS011;51449;51.676;5.812;2023-05-29T01:36:56;14.47;;;3.50;;
58250;SDS011;51449;51.676;5.812;2023-05-29T01:39:37;15.20;;;3.93;;
58250;SDS011;51449;51.676;5.812;2023-05-29T01:42:18;10.80;;;3.13;;
58250;SDS011;51449;51.676;5.812;2023-05-29T01:44:59;18.33;;;4.23;;
58250;SDS011;51449;51.676;5.812;2023-05-29T01:47:40;13.20;;;4.00;;
58250;SDS011;51449;51.676;5.812;2023-05-29T01:50:20;15.27;;;4.27;;
58250;SDS011;51449;51.676;5.812;2023-05-29T01:53:05;16.92;;;3.55;;
58250;SDS011;51449;51.676;5.812;2023-05-29T01:55:45;13.30;;;3.80;;
58250;SDS011;51449;51.676;5.812;2023-05-29T01:58:26;12.03;;;3.50;;
58250;SDS011;51449;51.676;5.812;2023-05-29T02:01:09;14.30;;;3.67;;
58250;SDS011;51449;51.676;5.812;2023-05-29T02:03:49;16.77;;;3.73;;
58250;SDS011;51449;51.676;5.812;2023-05-29T02:06:31;15.77;;;3.53;;
58250;SDS011;51449;51.676;5.812;2023-05-29T02:09:13;12.77;;;3.70;;
58250;SDS011;51449;51.676;5.812;2023-05-29T02:11:53;13.23;;;3.23;;
58250;SDS011;51449;51.676;5.812;2023-05-29T02:14:34;13.37;;;3.17;;
58250;SDS011;51449;51.676;5.812;2023-05-29T02:17:14;11.93;;;3.33;;
58250;SDS011;51449;51.676;5.812;2023-05-29T02:19:55;14.77;;;3.93;;
58250;SDS011;51449;51.676;5.812;2023-05-29T02:22:35;14.47;;;3.70;;
58250;SDS011;51449;51.676;5.812;2023-05-29T02:25:15;13.87;;;3.37;;
58250;SDS011;51449;51.676;5.812;2023-05-29T02:27:55;14.30;;;3.57;;
58250;SDS011;51449;51.676;5.812;2023-05-29T02:30:36;15.63;;;3.93;;
58250;SDS011;51449;51.676;5.812;2023-05-29T02:33:16;12.00;;;3.37;;
58250;SDS011;51449;51.676;5.812;2023-05-29T02:35:56;18.20;;;4.33;;
58250;SDS011;51449;51.676;5.812;2023-05-29T02:38:37;10.47;;;3.83;;
58250;SDS011;51449;51.676;5.812;2023-05-29T02:41:19;13.00;;;4.30;;
58250;SDS011;51449;51.676;5.812;2023-05-29T02:44:03;18.97;;;4.47;;
58250;SDS011;51449;51.676;5.812;2023-05-29T02:46:44;15.20;;;3.80;;
58250;SDS011;51449;51.676;5.812;2023-05-29T02:49:24;16.40;;;4.30;;
58250;SDS011;51449;51.676;5.812;2023-05-29T02:52:05;16.27;;;3.63;;
58250;SDS011;51449;51.676;5.812;2023-05-29T02:54:45;15.63;;;3.83;;
58250;SDS011;51449;51.676;5.812;2023-05-29T02:57:26;14.80;;;3.57;;
58250;SDS011;51449;51.676;5.812;2023-05-29T03:00:07;15.43;;;3.47;;
58250;SDS011;51449;51.676;5.812;2023-05-29T03:02:48;14.10;;;3.47;;
58250;SDS011;51449;51.676;5.812;2023-05-29T03:05:28;15.27;;;3.53;;
58250;SDS011;51449;51.676;5.812;2023-05-29T03:08:09;15.90;;;3.83;;
58250;SDS011;51449;51.676;5.812;2023-05-29T03:10:50;16.77;;;3.97;;
58250;SDS011;51449;51.676;5.812;2023-05-29T03:13:33;20.90;;;4.47;;
58250;SDS011;51449;51.676;5.812;2023-05-29T03:18:59;18.90;;;4.20;;
58250;SDS011;51449;51.676;5.812;2023-05-29T03:21:39;15.13;;;3.73;;
58250;SDS011;51449;51.676;5.812;2023-05-29T03:24:20;16.27;;;4.03;;
58250;SDS011;51449;51.676;5.812;2023-05-29T03:27:01;12.30;;;3.47;;
58250;SDS011;51449;51.676;5.812;2023-05-29T03:29:44;14.47;;;4.00;;
58250;SDS011;51449;51.676;5.812;2023-05-29T03:32:24;17.73;;;3.97;;
58250;SDS011;51449;51.676;5.812;2023-05-29T03:35:05;18.47;;;4.10;;
58250;SDS011;51449;51.676;5.812;2023-05-29T03:37:45;17.67;;;3.70;;
58250;SDS011;51449;51.676;5.812;2023-05-29T03:40:25;20.10;;;4.00;;
58250;SDS011;51449;51.676;5.812;2023-05-29T03:43:06;16.00;;;4.30;;
58250;SDS011;51449;51.676;5.812;2023-05-29T03:45:46;14.27;;;3.70;;
58250;SDS011;51449;51.676;5.812;2023-05-29T03:48:26;15.70;;;3.93;;
58250;SDS011;51449;51.676;5.812;2023-05-29T03:51:06;12.53;;;3.47;;
58250;SDS011;51449;51.676;5.812;2023-05-29T03:53:49;12.60;;;3.87;;
58250;SDS011;51449;51.676;5.812;2023-05-29T03:56:30;14.73;;;3.60;;
58250;SDS011;51449;51.676;5.812;2023-05-29T03:59:11;13.73;;;3.60;;
58250;SDS011;51449;51.676;5.812;2023-05-29T04:01:51;15.17;;;4.13;;
58250;SDS011;51449;51.676;5.812;2023-05-29T04:04:32;17.23;;;4.30;;
58250;SDS011;51449;51.676;5.812;2023-05-29T04:07:13;13.67;;;3.77;;
58250;SDS011;51449;51.676;5.812;2023-05-29T04:09:54;18.33;;;4.50;;
58250;SDS011;51449;51.676;5.812;2023-05-29T04:12:34;13.80;;;4.00;;
58250;SDS011;51449;51.676;5.812;2023-05-29T04:15:15;15.20;;;4.10;;
58250;SDS011;51449;51.676;5.812;2023-05-29T04:17:55;14.67;;;3.67;;
58250;SDS011;51449;51.676;5.812;2023-05-29T04:20:36;16.53;;;4.20;;
58250;SDS011;51449;51.676;5.812;2023-05-29T04:23:16;15.23;;;3.63;;
58250;SDS011;51449;51.676;5.812;2023-05-29T04:25:56;14.03;;;3.77;;
58250;SDS011;51449;51.676;5.812;2023-05-29T04:28:39;15.03;;;4.27;;
58250;SDS011;51449;51.676;5.812;2023-05-29T04:31:19;20.17;;;4.43;;
58250;SDS011;51449;51.676;5.812;2023-05-29T04:34:02;19.13;;;4.17;;
58250;SDS011;51449;51.676;5.812;2023-05-29T04:36:44;17.27;;;3.87;;
58250;SDS011;51449;51.676;5.812;2023-05-29T04:39:26;16.37;;;3.50;;
58250;SDS011;51449;51.676;5.812;2023-05-29T04:42:06;16.70;;;3.80;;
58250;SDS011;51449;51.676;5.812;2023-05-29T04:44:48;17.40;;;4.20;;
58250;SDS011;51449;51.676;5.812;2023-05-29T04:47:29;14.90;;;3.37;;
58250;SDS011;51449;51.676;5.812;2023-05-29T04:50:14;17.27;;;3.93;;
58250;SDS011;51449;51.676;5.812;2023-05-29T04:52:56;17.20;;;4.10;;
58250;SDS011;51449;51.676;5.812;2023-05-29T04:55:37;13.93;;;3.57;;
58250;SDS011;51449;51.676;5.812;2023-05-29T04:58:17;13.37;;;3.83;;
58250;SDS011;51449;51.676;5.812;2023-05-29T05:00:58;12.37;;;3.40;;
58250;SDS011;51449;51.676;5.812;2023-05-29T05:03:43;17.92;;;4.43;;
58250;SDS011;51449;51.676;5.812;2023-05-29T05:06:25;14.13;;;3.70;;
58250;SDS011;51449;51.676;5.812;2023-05-29T05:09:06;13.03;;;3.33;;
58250;SDS011;51449;51.676;5.812;2023-05-29T05:11:46;13.73;;;3.83;;
58250;SDS011;51449;51.676;5.812;2023-05-29T05:14:27;11.00;;;3.47;;
58250;SDS011;51449;51.676;5.812;2023-05-29T05:17:09;14.47;;;4.00;;
58250;SDS011;51449;51.676;5.812;2023-05-29T05:19:49;13.77;;;3.47;;
58250;SDS011;51449;51.676;5.812;2023-05-29T05:22:32;16.93;;;4.20;;
58250;SDS011;51449;51.676;5.812;2023-05-29T05:25:12;17.00;;;4.23;;
58250;SDS011;51449;51.676;5.812;2023-05-29T05:27:52;13.93;;;3.57;;
58250;SDS011;51449;51.676;5.812;2023-05-29T05:30:34;18.17;;;3.97;;
58250;SDS011;51449;51.676;5.812;2023-05-29T05:33:15;14.87;;;4.23;;
58250;SDS011;51449;51.676;5.812;2023-05-29T05:35:55;13.00;;;4.10;;
58250;SDS011;51449;51.676;5.812;2023-05-29T05:38:35;17.10;;;3.90;;
58250;SDS011;51449;51.676;5.812;2023-05-29T05:41:15;17.40;;;3.90;;
58250;SDS011;51449;51.676;5.812;2023-05-29T05:43:56;14.83;;;3.90;;
58250;SDS011;51449;51.676;5.812;2023-05-29T05:46:42;14.97;;;3.80;;
58250;SDS011;51449;51.676;5.812;2023-05-29T05:49:22;14.07;;;3.70;;
58250;SDS011;51449;51.676;5.812;2023-05-29T05:52:02;12.53;;;3.60;;
58250;SDS011;51449;51.676;5.812;2023-05-29T05:54:43;18.03;;;4.37;;
58250;SDS011;51449;51.676;5.812;2023-05-29T05:57:25;12.67;;;3.47;;
58250;SDS011;51449;51.676;5.812;2023-05-29T06:00:06;12.67;;;3.60;;
58250;SDS011;51449;51.676;5.812;2023-05-29T06:02:55;13.17;;;3.50;;
58250;SDS011;51449;51.676;5.812;2023-05-29T06:05:48;18.00;;;3.33;;
58250;SDS011;51449;51.676;5.812;2023-05-29T06:08:30;12.90;;;3.80;;
58250;SDS011;51449;51.676;5.812;2023-05-29T06:11:10;15.53;;;3.40;;
58250;SDS011;51449;51.676;5.812;2023-05-29T06:13:54;12.02;;;3.15;;
58250;SDS011;51449;51.676;5.812;2023-05-29T06:19:21;13.73;;;3.17;;
58250;SDS011;51449;51.676;5.812;2023-05-29T06:22:10;15.90;;;3.70;;
58250;SDS011;51449;51.676;5.812;2023-05-29T06:24:51;12.43;;;3.07;;
58250;SDS011;51449;51.676;5.812;2023-05-29T06:27:31;14.33;;;3.23;;
58250;SDS011;51449;51.676;5.812;2023-05-29T06:30:12;15.37;;;3.57;;
58250;SDS011;51449;51.676;5.812;2023-05-29T06:32:53;12.73;;;3.07;;
58250;SDS011;51449;51.676;5.812;2023-05-29T06:35:39;16.50;;;3.80;;
58250;SDS011;51449;51.676;5.812;2023-05-29T06:38:20;10.00;;;3.03;;
58250;SDS011;51449;51.676;5.812;2023-05-29T06:41:01;16.10;;;3.87;;
58250;SDS011;51449;51.676;5.812;2023-05-29T06:43:42;12.83;;;4.33;;
58250;SDS011;51449;51.676;5.812;2023-05-29T06:46:23;12.27;;;3.00;;
58250;SDS011;51449;51.676;5.812;2023-05-29T06:49:04;14.30;;;3.07;;
58250;SDS011;51449;51.676;5.812;2023-05-29T06:51:45;9.00;;;2.80;;
58250;SDS011;51449;51.676;5.812;2023-05-29T06:54:37;13.07;;;2.90;;
58250;SDS011;51449;51.676;5.812;2023-05-29T06:57:17;11.37;;;3.20;;
58250;SDS011;51449;51.676;5.812;2023-05-29T06:59:58;16.20;;;3.50;;
58250;SDS011;51449;51.676;5.812;2023-05-29T07:02:40;13.97;;;3.30;;
58250;SDS011;51449;51.676;5.812;2023-05-29T07:05:20;15.00;;;3.17;;
58250;SDS011;51449;51.676;5.812;2023-05-29T07:08:01;12.07;;;2.80;;
58250;SDS011;51449;51.676;5.812;2023-05-29T07:10:42;12.17;;;3.00;;
58250;SDS011;51449;51.676;5.812;2023-05-29T07:13:24;16.10;;;3.27;;
58250;SDS011;51449;51.676;5.812;2023-05-29T07:16:07;13.40;;;3.20;;
58250;SDS011;51449;51.676;5.812;2023-05-29T07:19:06;12.50;;;3.23;;
58250;SDS011;51449;51.676;5.812;2023-05-29T07:21:58;17.80;;;3.63;;
58250;SDS011;51449;51.676;5.812;2023-05-29T07:24:39;13.87;;;3.00;;
58250;SDS011;51449;51.676;5.812;2023-05-29T07:27:21;10.23;;;2.53;;
58250;SDS011;51449;51.676;5.812;2023-05-29T07:30:01;13.60;;;2.70;;
58250;SDS011;51449;51.676;5.812;2023-05-29T07:32:42;10.87;;;2.90;;
58250;SDS011;51449;51.676;5.812;2023-05-29T07:35:23;11.13;;;2.83;;
58250;SDS011;51449;51.676;5.812;2023-05-29T07:38:03;14.07;;;3.13;;
58250;SDS011;51449;51.676;5.812;2023-05-29T07:40:45;11.10;;;2.93;;
58250;SDS011;51449;51.676;5.812;2023-05-29T07:43:37;10.20;;;3.07;;
58250;SDS011;51449;51.676;5.812;2023-05-29T07:46:20;11.03;;;2.90;;
58250;SDS011;51449;51.676;5.812;2023-05-29T07:49:04;13.88;;;2.65;;
58250;SDS011;51449;51.676;5.812;2023-05-29T07:51:45;12.07;;;2.30;;
58250;SDS011;51449;51.676;5.812;2023-05-29T07:54:26;8.63;;;2.90;;
58250;SDS011;51449;51.676;5.812;2023-05-29T07:57:08;15.73;;;3.37;;
58250;SDS011;51449;51.676;5.812;2023-05-29T07:59:51;9.57;;;2.80;;
58250;SDS011;51449;51.676;5.812;2023-05-29T08:02:31;12.40;;;2.83;;
58250;SDS011;51449;51.676;5.812;2023-05-29T08:05:47;10.07;;;2.90;;
58250;SDS011;51449;51.676;5.812;2023-05-29T08:08:29;7.27;;;2.43;;
58250;SDS011;51449;51.676;5.812;2023-05-29T08:11:10;8.30;;;2.67;;
58250;SDS011;51449;51.676;5.812;2023-05-29T08:13:52;11.00;;;3.03;;
58250;SDS011;51449;51.676;5.812;2023-05-29T08:16:32;8.30;;;2.70;;
58250;SDS011;51449;51.676;5.812;2023-05-29T08:19:14;11.10;;;2.67;;
58250;SDS011;51449;51.676;5.812;2023-05-29T08:21:54;10.17;;;2.50;;
58250;SDS011;51449;51.676;5.812;2023-05-29T08:24:35;8.10;;;2.23;;
58250;SDS011;51449;51.676;5.812;2023-05-29T08:27:15;9.83;;;2.47;;
58250;SDS011;51449;51.676;5.812;2023-05-29T08:29:55;11.53;;;3.10;;
58250;SDS011;51449;51.676;5.812;2023-05-29T08:32:36;9.83;;;2.43;;
58250;SDS011;51449;51.676;5.812;2023-05-29T08:35:16;11.03;;;2.90;;
58250;SDS011;51449;51.676;5.812;2023-05-29T08:37:56;11.40;;;2.73;;
58250;SDS011;51449;51.676;5.812;2023-05-29T08:40:36;9.20;;;2.50;;
58250;SDS011;51449;51.676;5.812;2023-05-29T08:43:20;6.97;;;2.30;;
58250;SDS011;51449;51.676;5.812;2023-05-29T08:46:02;8.27;;;2.03;;
58250;SDS011;51449;51.676;5.812;2023-05-29T08:48:43;9.77;;;2.30;;
58250;SDS011;51449;51.676;5.812;2023-05-29T08:51:31;6.73;;;2.40;;
58250;SDS011;51449;51.676;5.812;2023-05-29T08:54:18;8.83;;;2.80;;
58250;SDS011;51449;51.676;5.812;2023-05-29T08:57:00;6.33;;;2.27;;
58250;SDS011;51449;51.676;5.812;2023-05-29T08:59:42;9.77;;;2.53;;
58250;SDS011;51449;51.676;5.812;2023-05-29T09:02:24;6.90;;;1.93;;
58250;SDS011;51449;51.676;5.812;2023-05-29T09:05:05;10.47;;;3.03;;
58250;SDS011;51449;51.676;5.812;2023-05-29T09:07:47;8.77;;;2.53;;
58250;SDS011;51449;51.676;5.812;2023-05-29T09:10:29;7.80;;;2.30;;
58250;SDS011;51449;51.676;5.812;2023-05-29T09:13:10;9.07;;;2.27;;
58250;SDS011;51449;51.676;5.812;2023-05-29T09:15:57;8.83;;;2.50;;
58250;SDS011;51449;51.676;5.812;2023-05-29T09:18:39;6.40;;;2.35;;
58250;SDS011;51449;51.676;5.812;2023-05-29T09:21:25;11.93;;;2.60;;
58250;SDS011;51449;51.676;5.812;2023-05-29T09:24:07;7.97;;;2.40;;
58250;SDS011;51449;51.676;5.812;2023-05-29T09:26:51;8.13;;;2.80;;
58250;SDS011;51449;51.676;5.812;2023-05-29T09:29:32;10.00;;;2.30;;
58250;SDS011;51449;51.676;5.812;2023-05-29T09:32:17;11.18;;;2.38;;
58250;SDS011;51449;51.676;5.812;2023-05-29T09:34:59;12.37;;;2.83;;
58250;SDS011;51449;51.676;5.812;2023-05-29T09:37:41;12.13;;;2.80;;
58250;SDS011;51449;51.676;5.812;2023-05-29T09:40:22;7.13;;;2.17;;
58250;SDS011;51449;51.676;5.812;2023-05-29T09:43:03;8.27;;;3.00;;
58250;SDS011;51449;51.676;5.812;2023-05-29T09:45:48;8.40;;;2.55;;
58250;SDS011;51449;51.676;5.812;2023-05-29T09:48:29;10.32;;;2.38;;
58250;SDS011;51449;51.676;5.812;2023-05-29T09:51:20;7.33;;;2.30;;
58250;SDS011;51449;51.676;5.812;2023-05-29T09:54:14;9.47;;;2.40;;
58250;SDS011;51449;51.676;5.812;2023-05-29T09:56:58;9.02;;;1.92;;
58250;SDS011;51449;51.676;5.812;2023-05-29T09:59:41;9.87;;;2.60;;
58250;SDS011;51449;51.676;5.812;2023-05-29T10:02:25;5.40;;;2.20;;
58250;SDS011;51449;51.676;5.812;2023-05-29T10:05:06;9.67;;;2.27;;
58250;SDS011;51449;51.676;5.812;2023-05-29T10:07:49;6.75;;;2.22;;
58250;SDS011;51449;51.676;5.812;2023-05-29T10:10:34;8.37;;;2.20;;
58250;SDS011;51449;51.676;5.812;2023-05-29T10:13:18;8.90;;;2.15;;
58250;SDS011;51449;51.676;5.812;2023-05-29T10:16:06;7.78;;;2.55;;
58250;SDS011;51449;51.676;5.812;2023-05-29T10:18:54;8.48;;;2.30;;
58250;SDS011;51449;51.676;5.812;2023-05-29T10:21:36;6.32;;;2.20;;
58250;SDS011;51449;51.676;5.812;2023-05-29T10:24:20;6.78;;;2.13;;
58250;SDS011;51449;51.676;5.812;2023-05-29T10:27:02;5.70;;;2.00;;
58250;SDS011;51449;51.676;5.812;2023-05-29T10:33:29;7.63;;;2.38;;
58250;SDS011;51449;51.676;5.812;2023-05-29T10:36:20;9.13;;;2.45;;
58250;SDS011;51449;51.676;5.812;2023-05-29T10:39:06;4.95;;;1.70;;
58250;SDS011;51449;51.676;5.812;2023-05-29T10:41:48;7.28;;;2.45;;
58250;SDS011;51449;51.676;5.812;2023-05-29T10:47:10;7.82;;;2.10;;
58250;SDS011;51449;51.676;5.812;2023-05-29T10:49:52;9.35;;;2.80;;
58250;SDS011;51449;51.676;5.812;2023-05-29T10:52:46;8.30;;;2.20;;
58250;SDS011;51449;51.676;5.812;2023-05-29T10:55:34;8.10;;;2.20;;
58250;SDS011;51449;51.676;5.812;2023-05-29T10:58:20;8.00;;;2.58;;
58250;SDS011;51449;51.676;5.812;2023-05-29T11:01:05;7.18;;;2.35;;
58250;SDS011;51449;51.676;5.812;2023-05-29T11:03:48;4.72;;;2.15;;
58250;SDS011;51449;51.676;5.812;2023-05-29T11:06:29;6.35;;;2.05;;
58250;SDS011;51449;51.676;5.812;2023-05-29T11:09:26;8.10;;;2.20;;
58250;SDS011;51449;51.676;5.812;2023-05-29T11:12:23;6.78;;;2.35;;
58250;SDS011;51449;51.676;5.812;2023-05-29T11:15:12;7.88;;;2.25;;
58250;SDS011;51449;51.676;5.812;2023-05-29T11:18:01;7.85;;;2.42;;
58250;SDS011;51449;51.676;5.812;2023-05-29T11:20:51;7.80;;;2.28;;
58250;SDS011;51449;51.676;5.812;2023-05-29T11:23:39;8.35;;;2.33;;
58250;SDS011;51449;51.676;5.812;2023-05-29T11:26:23;7.90;;;2.40;;
58250;SDS011;51449;51.676;5.812;2023-05-29T11:29:07;9.52;;;2.55;;
58250;SDS011;51449;51.676;5.812;2023-05-29T11:32:04;7.40;;;2.40;;
58250;SDS011;51449;51.676;5.812;2023-05-29T11:34:48;8.27;;;2.50;;
58250;SDS011;51449;51.676;5.812;2023-05-29T11:37:32;5.82;;;2.25;;
58250;SDS011;51449;51.676;5.812;2023-05-29T11:40:13;7.45;;;2.40;;
58250;SDS011;51449;51.676;5.812;2023-05-29T11:42:55;7.72;;;1.90;;
58250;SDS011;51449;51.676;5.812;2023-05-29T11:45:36;9.50;;;2.55;;
58250;SDS011;51449;51.676;5.812;2023-05-29T11:48:17;7.72;;;2.20;;
58250;SDS011;51449;51.676;5.812;2023-05-29T11:50:57;6.18;;;2.20;;
58250;SDS011;51449;51.676;5.812;2023-05-29T11:53:46;8.52;;;2.42;;
58250;SDS011;51449;51.676;5.812;2023-05-29T11:56:28;8.15;;;2.42;;
58250;SDS011;51449;51.676;5.812;2023-05-29T11:59:10;5.68;;;2.08;;
58250;SDS011;51449;51.676;5.812;2023-05-29T12:01:51;8.68;;;2.25;;
58250;SDS011;51449;51.676;5.812;2023-05-29T12:04:32;5.70;;;2.42;;
58250;SDS011;51449;51.676;5.812;2023-05-29T12:07:16;5.35;;;2.20;;
58250;SDS011;51449;51.676;5.812;2023-05-29T12:10:13;6.32;;;2.80;;
58250;SDS011;51449;51.676;5.812;2023-05-29T12:12:59;6.22;;;2.13;;
58250;SDS011;51449;51.676;5.812;2023-05-29T12:15:43;7.43;;;2.17;;
58250;SDS011;51449;51.676;5.812;2023-05-29T12:18:25;8.43;;;2.15;;
58250;SDS011;51449;51.676;5.812;2023-05-29T12:21:06;8.02;;;2.63;;
58250;SDS011;51449;51.676;5.812;2023-05-29T12:23:47;7.32;;;2.35;;
58250;SDS011;51449;51.676;5.812;2023-05-29T12:26:36;3.97;;;2.20;;
58250;SDS011;51449;51.676;5.812;2023-05-29T12:29:18;6.22;;;2.25;;
58250;SDS011;51449;51.676;5.812;2023-05-29T12:31:58;6.35;;;2.25;;
58250;SDS011;51449;51.676;5.812;2023-05-29T12:34:39;7.63;;;2.83;;
58250;SDS011;51449;51.676;5.812;2023-05-29T12:37:22;9.70;;;3.05;;
58250;SDS011;51449;51.676;5.812;2023-05-29T12:40:36;6.95;;;2.15;;
58250;SDS011;51449;51.676;5.812;2023-05-29T12:43:11;7.40;;;2.58;;
58250;SDS011;51449;51.676;5.812;2023-05-29T12:45:55;7.53;;;2.70;;
58250;SDS011;51449;51.676;5.812;2023-05-29T12:48:38;4.47;;;2.28;;
58250;SDS011;51449;51.676;5.812;2023-05-29T12:51:22;9.60;;;2.60;;
58250;SDS011;51449;51.676;5.812;2023-05-29T12:54:07;8.45;;;2.72;;
58250;SDS011;51449;51.676;5.812;2023-05-29T12:56:47;7.75;;;3.20;;
58250;SDS011;51449;51.676;5.812;2023-05-29T12:59:30;7.03;;;2.17;;
58250;SDS011;51449;51.676;5.812;2023-05-29T13:02:12;8.15;;;3.15;;
58250;SDS011;51449;51.676;5.812;2023-05-29T13:04:54;9.40;;;2.70;;
58250;SDS011;51449;51.676;5.812;2023-05-29T13:07:34;7.32;;;2.30;;
58250;SDS011;51449;51.676;5.812;2023-05-29T13:10:14;6.95;;;2.30;;
58250;SDS011;51449;51.676;5.812;2023-05-29T13:12:55;9.02;;;2.20;;
58250;SDS011;51449;51.676;5.812;2023-05-29T13:15:38;7.25;;;2.42;;
58250;SDS011;51449;51.676;5.812;2023-05-29T13:18:20;9.88;;;2.83;;
58250;SDS011;51449;51.676;5.812;2023-05-29T13:21:01;6.70;;;2.35;;
58250;SDS011;51449;51.676;5.812;2023-05-29T13:23:43;7.18;;;2.40;;
58250;SDS011;51449;51.676;5.812;2023-05-29T13:26:23;8.90;;;2.47;;
58250;SDS011;51449;51.676;5.812;2023-05-29T13:29:03;6.53;;;2.42;;
58250;SDS011;51449;51.676;5.812;2023-05-29T13:31:44;8.07;;;2.63;;
58250;SDS011;51449;51.676;5.812;2023-05-29T13:34:24;7.93;;;2.60;;
58250;SDS011;51449;51.676;5.812;2023-05-29T13:37:08;6.35;;;2.60;;
58250;SDS011;51449;51.676;5.812;2023-05-29T13:39:50;7.78;;;2.58;;
58250;SDS011;51449;51.676;5.812;2023-05-29T13:42:31;10.95;;;2.88;;
58250;SDS011;51449;51.676;5.812;2023-05-29T13:45:11;9.18;;;2.85;;
58250;SDS011;51449;51.676;5.812;2023-05-29T13:47:53;11.35;;;3.00;;
58250;SDS011;51449;51.676;5.812;2023-05-29T13:50:35;7.93;;;2.42;;
58250;SDS011;51449;51.676;5.812;2023-05-29T13:53:18;6.57;;;2.53;;
58250;SDS011;51449;51.676;5.812;2023-05-29T13:55:58;9.02;;;2.60;;
58250;SDS011;51449;51.676;5.812;2023-05-29T13:58:39;8.02;;;2.78;;
58250;SDS011;51449;51.676;5.812;2023-05-29T14:01:20;7.18;;;2.78;;
58250;SDS011;51449;51.676;5.812;2023-05-29T14:04:01;8.98;;;2.60;;
58250;SDS011;51449;51.676;5.812;2023-05-29T14:06:42;6.55;;;2.20;;
58250;SDS011;51449;51.676;5.812;2023-05-29T14:09:22;9.18;;;3.05;;
58250;SDS011;51449;51.676;5.812;2023-05-29T14:12:07;7.32;;;2.30;;
58250;SDS011;51449;51.676;5.812;2023-05-29T14:14:48;9.80;;;2.42;;
58250;SDS011;51449;51.676;5.812;2023-05-29T14:17:28;9.90;;;2.38;;
58250;SDS011;51449;51.676;5.812;2023-05-29T14:20:08;7.15;;;2.47;;
58250;SDS011;51449;51.676;5.812;2023-05-29T14:22:49;8.82;;;2.10;;
58250;SDS011;51449;51.676;5.812;2023-05-29T14:25:30;5.90;;;2.38;;
58250;SDS011;51449;51.676;5.812;2023-05-29T14:28:10;7.22;;;2.17;;
58250;SDS011;51449;51.676;5.812;2023-05-29T14:30:51;7.03;;;2.42;;
58250;SDS011;51449;51.676;5.812;2023-05-29T14:33:31;6.25;;;2.45;;
58250;SDS011;51449;51.676;5.812;2023-05-29T14:36:13;6.03;;;2.20;;
58250;SDS011;51449;51.676;5.812;2023-05-29T14:38:53;9.20;;;2.58;;
58250;SDS011;51449;51.676;5.812;2023-05-29T14:41:33;8.10;;;2.13;;
58250;SDS011;51449;51.676;5.812;2023-05-29T14:44:15;8.43;;;2.85;;
58250;SDS011;51449;51.676;5.812;2023-05-29T14:46:56;7.95;;;2.33;;
58250;SDS011;51449;51.676;5.812;2023-05-29T14:49:37;8.27;;;2.70;;
58250;SDS011;51449;51.676;5.812;2023-05-29T14:52:17;8.35;;;2.30;;
58250;SDS011;51449;51.676;5.812;2023-05-29T14:54:58;6.70;;;2.38;;
58250;SDS011;51449;51.676;5.812;2023-05-29T14:57:44;7.22;;;2.67;;
58250;SDS011;51449;51.676;5.812;2023-05-29T15:00:25;8.77;;;3.15;;
58250;SDS011;51449;51.676;5.812;2023-05-29T15:03:05;8.35;;;2.90;;
58250;SDS011;51449;51.676;5.812;2023-05-29T15:05:45;6.78;;;2.45;;
58250;SDS011;51449;51.676;5.812;2023-05-29T15:08:26;9.48;;;2.28;;
58250;SDS011;51449;51.676;5.812;2023-05-29T15:11:08;5.30;;;2.30;;
58250;SDS011;51449;51.676;5.812;2023-05-29T15:13:50;8.57;;;2.40;;
58250;SDS011;51449;51.676;5.812;2023-05-29T15:16:31;10.50;;;2.88;;
58250;SDS011;51449;51.676;5.812;2023-05-29T15:19:11;10.30;;;2.75;;
58250;SDS011;51449;51.676;5.812;2023-05-29T15:21:52;6.60;;;2.80;;
58250;SDS011;51449;51.676;5.812;2023-05-29T15:24:32;9.15;;;2.70;;
58250;SDS011;51449;51.676;5.812;2023-05-29T15:27:13;5.68;;;2.40;;
58250;SDS011;51449;51.676;5.812;2023-05-29T15:29:54;9.80;;;2.33;;
58250;SDS011;51449;51.676;5.812;2023-05-29T15:32:52;10.60;;;2.40;;
58250;SDS011;51449;51.676;5.812;2023-05-29T15:35:32;6.78;;;2.70;;
58250;SDS011;51449;51.676;5.812;2023-05-29T15:38:12;8.85;;;2.40;;
58250;SDS011;51449;51.676;5.812;2023-05-29T15:40:53;9.73;;;2.78;;
58250;SDS011;51449;51.676;5.812;2023-05-29T15:43:34;8.07;;;2.53;;
58250;SDS011;51449;51.676;5.812;2023-05-29T15:46:14;9.02;;;2.60;;
58250;SDS011;51449;51.676;5.812;2023-05-29T15:48:54;9.95;;;2.78;;
58250;SDS011;51449;51.676;5.812;2023-05-29T15:51:36;11.75;;;2.95;;
58250;SDS011;51449;51.676;5.812;2023-05-29T15:54:20;7.25;;;2.45;;
58250;SDS011;51449;51.676;5.812;2023-05-29T15:57:01;8.32;;;2.38;;
58250;SDS011;51449;51.676;5.812;2023-05-29T15:59:42;8.23;;;2.35;;
58250;SDS011;51449;51.676;5.812;2023-05-29T16:02:22;6.63;;;2.25;;
58250;SDS011;51449;51.676;5.812;2023-05-29T16:05:04;9.18;;;2.67;;
58250;SDS011;51449;51.676;5.812;2023-05-29T16:07:46;9.10;;;2.65;;
58250;SDS011;51449;51.676;5.812;2023-05-29T16:10:30;7.63;;;2.28;;
58250;SDS011;51449;51.676;5.812;2023-05-29T16:13:10;6.55;;;2.47;;
58250;SDS011;51449;51.676;5.812;2023-05-29T16:15:52;9.95;;;2.53;;
58250;SDS011;51449;51.676;5.812;2023-05-29T16:18:32;6.95;;;2.55;;
58250;SDS011;51449;51.676;5.812;2023-05-29T16:21:12;7.88;;;2.28;;
58250;SDS011;51449;51.676;5.812;2023-05-29T16:23:54;9.23;;;2.53;;
58250;SDS011;51449;51.676;5.812;2023-05-29T16:26:37;7.57;;;2.28;;